sensor_id;sensor_type;location;lat;lon;timestamp;temperature;humidity
7204;DHT22;3643;52.460;13.322;2022-11-30T04:50:34;3.90;99.90
7204;DHT22;3643;52.460;13.322;2022-11-30T04:53:03;3.90;99.90
7204;DHT22;3643;52.460;13.322;2022-11-30T04:55:31;3.90;99.90
7204;DHT22;3643;52.460;13.322;2022-11-30T04:58:00;3.80;99.90
7204;DHT22;3643;52.460;13.322;2022-11-30T05:00:29;3.80;99.90
7204;DHT22;3643;52.460;13.322;2022-11-30T05:02:58;3.80;99.90
7204;DHT22;3643;52.460;13.322;2022-11-30T05:05:27;3.80;99.90
7204;DHT22;3643;52.460;13.322;2022-11-30T05:07:58;3.80;99.90
7204;DHT22;3643;52.460;13.322;2022-11-30T05:10:27;3.80;99.90
7204;DHT22;3643;52.460;13.322;2022-11-30T05:12:57;3.80;99.90
7204;DHT22;3643;52.460;13.322;2022-11-30T05:15:26;3.80;99.90
7204;DHT22;3643;52.460;13.322;2022-11-30T05:17:57;3.80;99.90
7204;DHT22;3643;52.460;13.322;2022-11-30T05:20:26;3.70;99.90
7204;DHT22;3643;52.460;13.322;2022-11-30T05:22:57;3.70;99.90
7204;DHT22;3643;52.460;13.322;2022-11-30T05:25:25;3.80;99.90
7204;DHT22;3643;52.460;13.322;2022-11-30T05:27:54;3.80;99.90
7204;DHT22;3643;52.460;13.322;2022-11-30T05:30:22;3.80;99.90
7204;DHT22;3643;52.460;13.322;2022-11-30T05:32:52;3.80;99.90
7204;DHT22;3643;52.460;13.322;2022-11-30T05:35:20;3.80;99.90
7204;DHT22;3643;52.460;13.322;2022-11-30T05:37:51;3.80;99.90
7204;DHT22;3643;52.460;13.322;2022-11-30T05:40:21;3.80;99.90
7204;DHT22;3643;52.460;13.322;2022-11-30T05:42:54;3.80;99.90
7204;DHT22;3643;52.460;13.322;2022-11-30T05:45:23;3.80;99.90
7204;DHT22;3643;52.460;13.322;2022-11-30T05:47:51;3.80;99.90
7204;DHT22;3643;52.460;13.322;2022-11-30T05:50:20;3.80;99.90
7204;DHT22;3643;52.460;13.322;2022-11-30T05:52:51;3.80;99.90
7204;DHT22;3643;52.460;13.322;2022-11-30T05:55:24;3.80;99.90
7204;DHT22;3643;52.460;13.322;2022-11-30T05:57:53;3.80;99.90
7204;DHT22;3643;52.460;13.322;2022-11-30T06:00:21;3.80;99.90
7204;DHT22;3643;52.460;13.322;2022-11-30T06:02:54;3.80;99.90
7204;DHT22;3643;52.460;13.322;2022-11-30T06:05:23;3.80;99.90
7204;DHT22;3643;52.460;13.322;2022-11-30T06:07:52;3.80;99.90
7204;DHT22;3643;52.460;13.322;2022-11-30T06:10:23;3.80;99.90
7204;DHT22;3643;52.460;13.322;2022-11-30T06:12:53;3.70;99.90
7204;DHT22;3643;52.460;13.322;2022-11-30T06:15:21;3.80;99.90
7204;DHT22;3643;52.460;13.322;2022-11-30T06:17:54;3.80;99.90
7204;DHT22;3643;52.460;13.322;2022-11-30T06:20:23;3.80;99.90
7204;DHT22;3643;52.460;13.322;2022-11-30T06:22:51;3.80;99.90
7204;DHT22;3643;52.460;13.322;2022-11-30T06:25:20;3.80;99.90
7204;DHT22;3643;52.460;13.322;2022-11-30T06:27:51;2.40;99.90
7204;DHT22;3643;52.460;13.322;2022-11-30T06:30:20;3.70;99.90
7204;DHT22;3643;52.460;13.322;2022-11-30T06:32:50;3.80;99.90
7204;DHT22;3643;52.460;13.322;2022-11-30T06:35:19;3.70;99.90
7204;DHT22;3643;52.460;13.322;2022-11-30T06:37:48;3.70;99.90
7204;DHT22;3643;52.460;13.322;2022-11-30T06:40:17;3.70;99.90
7204;DHT22;3643;52.460;13.322;2022-11-30T06:42:45;3.80;99.90
7204;DHT22;3643;52.460;13.322;2022-11-30T06:45:16;3.80;99.90
7204;DHT22;3643;52.460;13.322;2022-11-30T06:47:45;3.80;99.90
7204;DHT22;3643;52.460;13.322;2022-11-30T06:50:14;3.80;99.90
7204;DHT22;3643;52.460;13.322;2022-11-30T06:52:43;3.80;99.90
7204;DHT22;3643;52.460;13.322;2022-11-30T06:55:12;3.80;99.90
7204;DHT22;3643;52.460;13.322;2022-11-30T06:57:40;3.80;99.90
7204;DHT22;3643;52.460;13.322;2022-11-30T07:00:13;3.80;99.90
7204;DHT22;3643;52.460;13.322;2022-11-30T07:02:43;3.80;99.90
7204;DHT22;3643;52.460;13.322;2022-11-30T07:05:12;3.80;99.90
7204;DHT22;3643;52.460;13.322;2022-11-30T07:07:40;3.80;99.90
7204;DHT22;3643;52.460;13.322;2022-11-30T07:10:09;3.80;99.90
7204;DHT22;3643;52.460;13.322;2022-11-30T07:12:48;3.80;99.90
7204;DHT22;3643;52.460;13.322;2022-11-30T07:15:17;3.90;99.90
7204;DHT22;3643;52.460;13.322;2022-11-30T07:17:47;3.80;99.90
7204;DHT22;3643;52.460;13.322;2022-11-30T07:20:16;3.90;99.90
7204;DHT22;3643;52.460;13.322;2022-11-30T07:22:54;3.80;99.90
7204;DHT22;3643;52.460;13.322;2022-11-30T07:25:23;3.80;99.90
7204;DHT22;3643;52.460;13.322;2022-11-30T07:28:09;3.90;99.90
7204;DHT22;3643;52.460;13.322;2022-11-30T07:30:38;3.90;99.90
7204;DHT22;3643;52.460;13.322;2022-11-30T07:33:08;3.90;99.90
7204;DHT22;3643;52.460;13.322;2022-11-30T07:35:37;3.90;99.90
7204;DHT22;3643;52.460;13.322;2022-11-30T07:38:06;3.90;99.90
7204;DHT22;3643;52.460;13.322;2022-11-30T07:40:36;3.90;99.90
7204;DHT22;3643;52.460;13.322;2022-11-30T07:43:04;3.90;99.90
7204;DHT22;3643;52.460;13.322;2022-11-30T07:45:33;3.90;99.90
7204;DHT22;3643;52.460;13.322;2022-11-30T07:48:01;3.90;99.90
7204;DHT22;3643;52.460;13.322;2022-11-30T07:50:32;4.00;99.90
7204;DHT22;3643;52.460;13.322;2022-11-30T07:53:01;4.00;99.90
7204;DHT22;3643;52.460;13.322;2022-11-30T07:55:30;4.00;99.90
7204;DHT22;3643;52.460;13.322;2022-11-30T07:57:59;4.00;99.90
7204;DHT22;3643;52.460;13.322;2022-11-30T08:00:27;4.00;99.90
7204;DHT22;3643;52.460;13.322;2022-11-30T08:02:56;4.00;99.90
7204;DHT22;3643;52.460;13.322;2022-11-30T08:05:24;4.00;99.90
7204;DHT22;3643;52.460;13.322;2022-11-30T08:07:54;4.10;99.90
7204;DHT22;3643;52.460;13.322;2022-11-30T08:10:25;4.10;99.90
7204;DHT22;3643;52.460;13.322;2022-11-30T08:12:54;4.10;99.90
7204;DHT22;3643;52.460;13.322;2022-11-30T08:15:22;4.10;99.90
7204;DHT22;3643;52.460;13.322;2022-11-30T08:17:59;4.20;99.90
7204;DHT22;3643;52.460;13.322;2022-11-30T08:20:33;4.30;99.90
7204;DHT22;3643;52.460;13.322;2022-11-30T08:23:03;4.30;99.90
7204;DHT22;3643;52.460;13.322;2022-11-30T08:25:33;4.40;99.90
7204;DHT22;3643;52.460;13.322;2022-11-30T08:28:02;4.40;99.90
7204;DHT22;3643;52.460;13.322;2022-11-30T08:30:31;4.40;99.90
7204;DHT22;3643;52.460;13.322;2022-11-30T08:33:00;4.40;99.90
7204;DHT22;3643;52.460;13.322;2022-11-30T08:35:29;4.40;99.90
7204;DHT22;3643;52.460;13.322;2022-11-30T08:37:58;4.40;99.90
7204;DHT22;3643;52.460;13.322;2022-11-30T08:40:28;4.50;99.90
7204;DHT22;3643;52.460;13.322;2022-11-30T08:42:58;4.50;99.90
7204;DHT22;3643;52.460;13.322;2022-11-30T08:45:26;4.50;99.90
7204;DHT22;3643;52.460;13.322;2022-11-30T08:47:55;4.50;99.90
7204;DHT22;3643;52.460;13.322;2022-11-30T08:50:23;4.50;99.90
7204;DHT22;3643;52.460;13.322;2022-11-30T08:52:52;4.50;99.90
7204;DHT22;3643;52.460;13.322;2022-11-30T08:55:25;4.50;99.90
7204;DHT22;3643;52.460;13.322;2022-11-30T08:57:55;4.50;99.90
7204;DHT22;3643;52.460;13.322;2022-11-30T09:00:24;4.50;99.90
7204;DHT22;3643;52.460;13.322;2022-11-30T09:02:53;4.60;99.90
7204;DHT22;3643;52.460;13.322;2022-11-30T09:05:22;4.60;99.90
7204;DHT22;3643;52.460;13.322;2022-11-30T09:07:51;4.50;99.90
7204;DHT22;3643;52.460;13.322;2022-11-30T09:10:20;6.30;99.90
7204;DHT22;3643;52.460;13.322;2022-11-30T09:12:49;4.60;99.90
7204;DHT22;3643;52.460;13.322;2022-11-30T09:15:20;4.70;99.90
7204;DHT22;3643;52.460;13.322;2022-11-30T09:17:49;4.70;99.90
7204;DHT22;3643;52.460;13.322;2022-11-30T09:20:18;4.80;99.90
7204;DHT22;3643;52.460;13.322;2022-11-30T09:22:47;4.80;99.90
7204;DHT22;3643;52.460;13.322;2022-11-30T09:25:15;4.80;99.90
7204;DHT22;3643;52.460;13.322;2022-11-30T09:27:44;4.90;99.90
7204;DHT22;3643;52.460;13.322;2022-11-30T09:30:13;4.80;99.90
7204;DHT22;3643;52.460;13.322;2022-11-30T09:32:44;4.80;99.90
7204;DHT22;3643;52.460;13.322;2022-11-30T09:35:13;4.80;99.90
7204;DHT22;3643;52.460;13.322;2022-11-30T09:37:42;4.80;99.90
7204;DHT22;3643;52.460;13.322;2022-11-30T09:40:21;4.90;99.90
7204;DHT22;3643;52.460;13.322;2022-11-30T09:42:55;4.90;99.90
7204;DHT22;3643;52.460;13.322;2022-11-30T09:45:31;4.90;99.90
7204;DHT22;3643;52.460;13.322;2022-11-30T09:48:26;4.90;99.90
7204;DHT22;3643;52.460;13.322;2022-11-30T09:51:02;4.90;99.90
7204;DHT22;3643;52.460;13.322;2022-11-30T09:53:37;4.90;99.90
7204;DHT22;3643;52.460;13.322;2022-11-30T09:56:17;5.00;99.90
7204;DHT22;3643;52.460;13.322;2022-11-30T09:58:49;5.00;99.90
7204;DHT22;3643;52.460;13.322;2022-11-30T10:01:22;5.00;99.90
7204;DHT22;3643;52.460;13.322;2022-11-30T10:03:56;5.10;99.90
7204;DHT22;3643;52.460;13.322;2022-11-30T10:06:33;5.20;99.90
7204;DHT22;3643;52.460;13.322;2022-11-30T10:09:26;5.30;99.90
7204;DHT22;3643;52.460;13.322;2022-11-30T10:12:01;5.30;99.90
7204;DHT22;3643;52.460;13.322;2022-11-30T10:15:03;5.40;99.90
7204;DHT22;3643;52.460;13.322;2022-11-30T10:17:44;5.40;99.90
7204;DHT22;3643;52.460;13.322;2022-11-30T10:20:59;5.40;99.90
7204;DHT22;3643;52.460;13.322;2022-11-30T10:23:51;5.50;99.90
7204;DHT22;3643;52.460;13.322;2022-11-30T10:26:27;5.60;99.90
7204;DHT22;3643;52.460;13.322;2022-11-30T10:29:04;5.60;99.90
7204;DHT22;3643;52.460;13.322;2022-11-30T10:31:37;5.60;99.90
7204;DHT22;3643;52.460;13.322;2022-11-30T10:34:17;5.70;99.90
7204;DHT22;3643;52.460;13.322;2022-11-30T10:36:52;5.70;99.90
7204;DHT22;3643;52.460;13.322;2022-11-30T10:39:26;5.60;99.90
7204;DHT22;3643;52.460;13.322;2022-11-30T10:42:00;5.70;99.90
7204;DHT22;3643;52.460;13.322;2022-11-30T10:44:34;5.60;99.90
7204;DHT22;3643;52.460;13.322;2022-11-30T10:47:12;5.70;99.90
7204;DHT22;3643;52.460;13.322;2022-11-30T10:49:44;5.70;99.90
7204;DHT22;3643;52.460;13.322;2022-11-30T10:52:16;5.80;99.90
7204;DHT22;3643;52.460;13.322;2022-11-30T10:54:47;5.80;99.90
7204;DHT22;3643;52.460;13.322;2022-11-30T10:57:16;5.80;99.90
7204;DHT22;3643;52.460;13.322;2022-11-30T10:59:47;5.90;99.90
7204;DHT22;3643;52.460;13.322;2022-11-30T11:02:37;5.80;99.90
7204;DHT22;3643;52.460;13.322;2022-11-30T11:05:13;5.80;99.90
7204;DHT22;3643;52.460;13.322;2022-11-30T11:07:55;5.80;99.90
7204;DHT22;3643;52.460;13.322;2022-11-30T11:10:34;5.80;99.90
7204;DHT22;3643;52.460;13.322;2022-11-30T11:13:03;5.70;99.90
7204;DHT22;3643;52.460;13.322;2022-11-30T11:15:34;5.80;99.90
7204;DHT22;3643;52.460;13.322;2022-11-30T11:18:20;5.80;99.90
7204;DHT22;3643;52.460;13.322;2022-11-30T11:21:02;5.70;99.90
7204;DHT22;3643;52.460;13.322;2022-11-30T11:23:36;5.80;99.90
7204;DHT22;3643;52.460;13.322;2022-11-30T11:26:06;5.80;99.90
7204;DHT22;3643;52.460;13.322;2022-11-30T11:28:36;5.70;99.90
7204;DHT22;3643;52.460;13.322;2022-11-30T11:31:34;5.80;99.90
7204;DHT22;3643;52.460;13.322;2022-11-30T11:34:03;5.90;99.90
7204;DHT22;3643;52.460;13.322;2022-11-30T11:36:35;5.90;99.90
7204;DHT22;3643;52.460;13.322;2022-11-30T11:39:24;5.90;99.90
7204;DHT22;3643;52.460;13.322;2022-11-30T11:41:54;6.00;99.90
7204;DHT22;3643;52.460;13.322;2022-11-30T11:44:26;6.00;99.90
7204;DHT22;3643;52.460;13.322;2022-11-30T11:46:57;6.10;99.90
7204;DHT22;3643;52.460;13.322;2022-11-30T11:49:28;6.00;99.90
7204;DHT22;3643;52.460;13.322;2022-11-30T11:52:01;5.80;99.90
7204;DHT22;3643;52.460;13.322;2022-11-30T11:54:35;6.00;99.90
7204;DHT22;3643;52.460;13.322;2022-11-30T11:57:08;6.10;99.90
7204;DHT22;3643;52.460;13.322;2022-11-30T11:59:43;6.10;99.90
7204;DHT22;3643;52.460;13.322;2022-11-30T12:02:23;6.10;99.90
7204;DHT22;3643;52.460;13.322;2022-11-30T12:04:58;6.10;99.90
7204;DHT22;3643;52.460;13.322;2022-11-30T12:07:33;6.00;99.90
7204;DHT22;3643;52.460;13.322;2022-11-30T12:10:22;6.00;99.90
7204;DHT22;3643;52.460;13.322;2022-11-30T12:13:15;5.90;99.90
7204;DHT22;3643;52.460;13.322;2022-11-30T12:16:04;5.90;99.90
7204;DHT22;3643;52.460;13.322;2022-11-30T12:18:43;5.80;99.90
7204;DHT22;3643;52.460;13.322;2022-11-30T12:21:15;5.80;99.90
7204;DHT22;3643;52.460;13.322;2022-11-30T12:24:05;5.80;99.90
7204;DHT22;3643;52.460;13.322;2022-11-30T12:26:45;5.90;99.90
7204;DHT22;3643;52.460;13.322;2022-11-30T12:29:21;5.90;99.90
7204;DHT22;3643;52.460;13.322;2022-11-30T12:32:09;6.00;99.90
7204;DHT22;3643;52.460;13.322;2022-11-30T12:34:48;6.00;99.90
7204;DHT22;3643;52.460;13.322;2022-11-30T12:37:27;6.00;99.90
7204;DHT22;3643;52.460;13.322;2022-11-30T12:40:02;6.00;99.90
7204;DHT22;3643;52.460;13.322;2022-11-30T12:42:45;6.00;99.90
7204;DHT22;3643;52.460;13.322;2022-11-30T12:45:21;6.00;99.90
7204;DHT22;3643;52.460;13.322;2022-11-30T12:48:01;5.90;99.90
7204;DHT22;3643;52.460;13.322;2022-11-30T12:50:44;5.80;99.90
7204;DHT22;3643;52.460;13.322;2022-11-30T12:53:21;5.80;99.90
7204;DHT22;3643;52.460;13.322;2022-11-30T12:56:01;5.80;99.90
7204;DHT22;3643;52.460;13.322;2022-11-30T12:58:40;5.70;99.90
7204;DHT22;3643;52.460;13.322;2022-11-30T13:01:19;5.70;99.90
7204;DHT22;3643;52.460;13.322;2022-11-30T13:03:57;5.70;99.90
7204;DHT22;3643;52.460;13.322;2022-11-30T13:06:32;5.80;99.90
7204;DHT22;3643;52.460;13.322;2022-11-30T13:09:09;5.80;99.90
7204;DHT22;3643;52.460;13.322;2022-11-30T13:11:47;5.80;99.90
7204;DHT22;3643;52.460;13.322;2022-11-30T13:14:22;5.80;99.90
7204;DHT22;3643;52.460;13.322;2022-11-30T13:16:58;5.80;99.90
7204;DHT22;3643;52.460;13.322;2022-11-30T13:19:45;5.80;99.90
7204;DHT22;3643;52.460;13.322;2022-11-30T13:22:21;5.70;99.90
7204;DHT22;3643;52.460;13.322;2022-11-30T13:24:58;5.70;99.90
7204;DHT22;3643;52.460;13.322;2022-11-30T13:27:31;5.60;99.90
7204;DHT22;3643;52.460;13.322;2022-11-30T13:30:21;5.50;99.90
7204;DHT22;3643;52.460;13.322;2022-11-30T13:32:53;5.50;99.90
7204;DHT22;3643;52.460;13.322;2022-11-30T13:35:40;5.50;99.90
7204;DHT22;3643;52.460;13.322;2022-11-30T13:38:17;5.40;99.90
7204;DHT22;3643;52.460;13.322;2022-11-30T13:41:04;5.20;99.90
7204;DHT22;3643;52.460;13.322;2022-11-30T13:43:35;5.20;99.90
7204;DHT22;3643;52.460;13.322;2022-11-30T13:46:14;5.10;99.90
7204;DHT22;3643;52.460;13.322;2022-11-30T13:48:47;5.10;99.90
7204;DHT22;3643;52.460;13.322;2022-11-30T13:51:32;5.10;99.90
7204;DHT22;3643;52.460;13.322;2022-11-30T14:03:23;4.60;99.90
7204;DHT22;3643;52.460;13.322;2022-11-30T14:05:55;4.50;99.90
7204;DHT22;3643;52.460;13.322;2022-11-30T14:08:35;4.40;99.90
7204;DHT22;3643;52.460;13.322;2022-11-30T14:11:39;4.30;99.90
7204;DHT22;3643;52.460;13.322;2022-11-30T14:14:42;4.10;99.90
7204;DHT22;3643;52.460;13.322;2022-11-30T14:17:23;2.40;99.90
7204;DHT22;3643;52.460;13.322;2022-11-30T14:19:57;3.60;99.90
7204;DHT22;3643;52.460;13.322;2022-11-30T14:22:28;3.30;99.90
7204;DHT22;3643;52.460;13.322;2022-11-30T14:24:57;3.20;99.90
7204;DHT22;3643;52.460;13.322;2022-11-30T14:27:28;3.20;99.90
7204;DHT22;3643;52.460;13.322;2022-11-30T14:30:00;3.10;99.90
7204;DHT22;3643;52.460;13.322;2022-11-30T14:32:36;3.00;99.90
7204;DHT22;3643;52.460;13.322;2022-11-30T14:35:15;2.90;99.90
7204;DHT22;3643;52.460;13.322;2022-11-30T14:37:51;2.70;99.90
7204;DHT22;3643;52.460;13.322;2022-11-30T14:40:22;2.60;99.90
7204;DHT22;3643;52.460;13.322;2022-11-30T14:42:55;2.60;99.90
7204;DHT22;3643;52.460;13.322;2022-11-30T14:45:26;2.50;99.90
7204;DHT22;3643;52.460;13.322;2022-11-30T14:48:04;2.50;99.90
7204;DHT22;3643;52.460;13.322;2022-11-30T14:50:41;2.50;99.90
7204;DHT22;3643;52.460;13.322;2022-11-30T14:53:20;2.40;99.90
7204;DHT22;3643;52.460;13.322;2022-11-30T14:55:54;2.30;99.90
7204;DHT22;3643;52.460;13.322;2022-11-30T14:58:31;2.30;99.90
7204;DHT22;3643;52.460;13.322;2022-11-30T15:01:02;3.60;99.90
7204;DHT22;3643;52.460;13.322;2022-11-30T15:03:42;2.10;99.90
7204;DHT22;3643;52.460;13.322;2022-11-30T15:06:17;2.10;99.90
7204;DHT22;3643;52.460;13.322;2022-11-30T15:08:49;2.00;99.90
7204;DHT22;3643;52.460;13.322;2022-11-30T15:11:19;1.90;99.90
7204;DHT22;3643;52.460;13.322;2022-11-30T15:13:51;1.90;99.90
7204;DHT22;3643;52.460;13.322;2022-11-30T15:16:24;1.80;99.90
7204;DHT22;3643;52.460;13.322;2022-11-30T15:18:55;1.70;99.90
7204;DHT22;3643;52.460;13.322;2022-11-30T15:21:27;1.60;99.90
7204;DHT22;3643;52.460;13.322;2022-11-30T15:23:58;1.50;99.90
7204;DHT22;3643;52.460;13.322;2022-11-30T15:26:31;1.50;99.90
7204;DHT22;3643;52.460;13.322;2022-11-30T15:29:04;1.40;99.90
7204;DHT22;3643;52.460;13.322;2022-11-30T15:31:36;1.40;99.90
7204;DHT22;3643;52.460;13.322;2022-11-30T15:34:19;1.40;99.90
7204;DHT22;3643;52.460;13.322;2022-11-30T15:36:58;1.50;99.90
7204;DHT22;3643;52.460;13.322;2022-11-30T15:39:28;1.50;99.90
7204;DHT22;3643;52.460;13.322;2022-11-30T15:42:00;1.50;99.90
7204;DHT22;3643;52.460;13.322;2022-11-30T15:44:38;1.50;99.90
7204;DHT22;3643;52.460;13.322;2022-11-30T15:47:23;1.50;99.90
7204;DHT22;3643;52.460;13.322;2022-11-30T15:49:54;1.50;99.90
7204;DHT22;3643;52.460;13.322;2022-11-30T15:52:29;1.50;99.90
7204;DHT22;3643;52.460;13.322;2022-11-30T15:54:59;1.50;99.90
7204;DHT22;3643;52.460;13.322;2022-11-30T15:57:57;1.50;99.90
7204;DHT22;3643;52.460;13.322;2022-11-30T16:00:26;1.50;99.90
7204;DHT22;3643;52.460;13.322;2022-11-30T16:03:06;1.50;99.90
7204;DHT22;3643;52.460;13.322;2022-11-30T16:05:37;1.50;99.90
7204;DHT22;3643;52.460;13.322;2022-11-30T16:08:15;1.40;99.90
7204;DHT22;3643;52.460;13.322;2022-11-30T16:10:45;1.40;99.90
7204;DHT22;3643;52.460;13.322;2022-11-30T16:13:15;1.40;99.90
7204;DHT22;3643;52.460;13.322;2022-11-30T16:15:46;1.30;99.90
7204;DHT22;3643;52.460;13.322;2022-11-30T16:18:21;1.30;99.90
7204;DHT22;3643;52.460;13.322;2022-11-30T16:20:52;1.30;99.90
7204;DHT22;3643;52.460;13.322;2022-11-30T16:23:23;1.40;99.90
7204;DHT22;3643;52.460;13.322;2022-11-30T16:25:52;1.40;99.90
7204;DHT22;3643;52.460;13.322;2022-11-30T16:28:23;1.40;99.90
7204;DHT22;3643;52.460;13.322;2022-11-30T16:31:00;1.40;99.90
7204;DHT22;3643;52.460;13.322;2022-11-30T16:33:29;1.40;99.90
7204;DHT22;3643;52.460;13.322;2022-11-30T16:36:00;1.40;99.90
7204;DHT22;3643;52.460;13.322;2022-11-30T16:38:32;1.50;99.90
7204;DHT22;3643;52.460;13.322;2022-11-30T16:41:15;1.50;99.90
7204;DHT22;3643;52.460;13.322;2022-11-30T16:43:46;1.50;99.90
7204;DHT22;3643;52.460;13.322;2022-11-30T16:46:17;1.50;99.90
7204;DHT22;3643;52.460;13.322;2022-11-30T16:48:47;1.50;99.90
7204;DHT22;3643;52.460;13.322;2022-11-30T16:51:19;1.50;99.90
7204;DHT22;3643;52.460;13.322;2022-11-30T16:53:50;1.50;99.90
7204;DHT22;3643;52.460;13.322;2022-11-30T16:56:19;1.50;99.90
7204;DHT22;3643;52.460;13.322;2022-11-30T16:58:49;1.60;99.90
7204;DHT22;3643;52.460;13.322;2022-11-30T17:01:24;2.30;99.90
7204;DHT22;3643;52.460;13.322;2022-11-30T17:04:04;1.60;99.90
7204;DHT22;3643;52.460;13.322;2022-11-30T17:06:38;1.60;99.90
7204;DHT22;3643;52.460;13.322;2022-11-30T17:09:12;1.70;99.90
7204;DHT22;3643;52.460;13.322;2022-11-30T17:11:41;1.70;99.90
7204;DHT22;3643;52.460;13.322;2022-11-30T17:14:11;1.70;99.90
7204;DHT22;3643;52.460;13.322;2022-11-30T17:16:40;1.60;99.90
7204;DHT22;3643;52.460;13.322;2022-11-30T17:19:09;1.60;99.90
7204;DHT22;3643;52.460;13.322;2022-11-30T17:21:39;1.70;99.90
7204;DHT22;3643;52.460;13.322;2022-11-30T17:24:12;1.70;99.90
7204;DHT22;3643;52.460;13.322;2022-11-30T17:26:42;1.70;99.90
7204;DHT22;3643;52.460;13.322;2022-11-30T17:29:11;1.70;99.90
7204;DHT22;3643;52.460;13.322;2022-11-30T17:31:40;1.80;99.90
7204;DHT22;3643;52.460;13.322;2022-11-30T17:34:09;1.70;99.90
7204;DHT22;3643;52.460;13.322;2022-11-30T17:36:37;1.70;99.90
7204;DHT22;3643;52.460;13.322;2022-11-30T17:39:06;1.70;99.90
7204;DHT22;3643;52.460;13.322;2022-11-30T17:41:37;1.70;99.90
7204;DHT22;3643;52.460;13.322;2022-11-30T17:44:06;1.80;99.90
7204;DHT22;3643;52.460;13.322;2022-11-30T17:46:36;1.80;99.90
7204;DHT22;3643;52.460;13.322;2022-11-30T17:49:10;1.80;99.90
7204;DHT22;3643;52.460;13.322;2022-11-30T17:51:38;1.80;99.90
7204;DHT22;3643;52.460;13.322;2022-11-30T17:54:07;1.80;99.90
7204;DHT22;3643;52.460;13.322;2022-11-30T17:56:37;1.70;99.90
7204;DHT22;3643;52.460;13.322;2022-11-30T17:59:07;1.70;99.90
7204;DHT22;3643;52.460;13.322;2022-11-30T18:01:35;1.70;99.90
7204;DHT22;3643;52.460;13.322;2022-11-30T18:04:07;1.70;99.90
7204;DHT22;3643;52.460;13.322;2022-11-30T18:06:36;1.70;99.90
7204;DHT22;3643;52.460;13.322;2022-11-30T18:09:05;1.60;99.90
7204;DHT22;3643;52.460;13.322;2022-11-30T18:11:37;1.70;99.90
7204;DHT22;3643;52.460;13.322;2022-11-30T18:14:07;1.70;99.90
7204;DHT22;3643;52.460;13.322;2022-11-30T18:16:36;1.70;99.90
7204;DHT22;3643;52.460;13.322;2022-11-30T18:19:05;1.70;99.90
7204;DHT22;3643;52.460;13.322;2022-11-30T18:21:39;1.70;99.90
7204;DHT22;3643;52.460;13.322;2022-11-30T18:24:09;1.70;99.90
7204;DHT22;3643;52.460;13.322;2022-11-30T18:26:39;1.70;99.90
7204;DHT22;3643;52.460;13.322;2022-11-30T18:29:09;1.70;99.90
7204;DHT22;3643;52.460;13.322;2022-11-30T18:31:38;1.60;99.90
7204;DHT22;3643;52.460;13.322;2022-11-30T18:34:07;1.70;99.90
7204;DHT22;3643;52.460;13.322;2022-11-30T18:36:35;1.60;99.90
7204;DHT22;3643;52.460;13.322;2022-11-30T18:39:04;1.60;99.90
7204;DHT22;3643;52.460;13.322;2022-11-30T18:41:33;1.60;99.90
7204;DHT22;3643;52.460;13.322;2022-11-30T18:44:08;1.60;99.90
7204;DHT22;3643;52.460;13.322;2022-11-30T18:46:37;1.60;99.90
7204;DHT22;3643;52.460;13.322;2022-11-30T18:49:08;1.60;99.90
7204;DHT22;3643;52.460;13.322;2022-11-30T18:51:37;1.70;99.90
7204;DHT22;3643;52.460;13.322;2022-11-30T18:54:09;1.70;99.90
7204;DHT22;3643;52.460;13.322;2022-11-30T18:56:39;1.60;99.90
7204;DHT22;3643;52.460;13.322;2022-11-30T18:59:14;1.60;99.90
7204;DHT22;3643;52.460;13.322;2022-11-30T19:01:44;1.60;99.90
7204;DHT22;3643;52.460;13.322;2022-11-30T19:04:13;1.60;99.90
7204;DHT22;3643;52.460;13.322;2022-11-30T19:06:42;1.60;99.90
7204;DHT22;3643;52.460;13.322;2022-11-30T19:09:13;1.60;99.90
7204;DHT22;3643;52.460;13.322;2022-11-30T19:11:42;1.20;99.90
7204;DHT22;3643;52.460;13.322;2022-11-30T19:14:16;1.60;99.90
7204;DHT22;3643;52.460;13.322;2022-11-30T19:16:47;1.60;99.90
7204;DHT22;3643;52.460;13.322;2022-11-30T19:19:15;1.60;99.90
7204;DHT22;3643;52.460;13.322;2022-11-30T19:21:45;1.60;99.90
7204;DHT22;3643;52.460;13.322;2022-11-30T19:24:14;1.50;99.90
7204;DHT22;3643;52.460;13.322;2022-11-30T19:26:43;1.50;99.90
7204;DHT22;3643;52.460;13.322;2022-11-30T19:29:12;1.50;99.90
7204;DHT22;3643;52.460;13.322;2022-11-30T19:31:42;1.50;99.90
7204;DHT22;3643;52.460;13.322;2022-11-30T19:34:12;1.50;99.90
7204;DHT22;3643;52.460;13.322;2022-11-30T19:36:42;1.50;99.90
7204;DHT22;3643;52.460;13.322;2022-11-30T19:39:10;1.50;99.90
7204;DHT22;3643;52.460;13.322;2022-11-30T19:41:39;1.50;99.90
7204;DHT22;3643;52.460;13.322;2022-11-30T19:44:12;1.50;99.90
7204;DHT22;3643;52.460;13.322;2022-11-30T19:46:43;1.50;99.90
7204;DHT22;3643;52.460;13.322;2022-11-30T19:49:14;1.50;99.90
7204;DHT22;3643;52.460;13.322;2022-11-30T19:51:43;1.60;99.90
7204;DHT22;3643;52.460;13.322;2022-11-30T19:54:11;1.60;99.90
7204;DHT22;3643;52.460;13.322;2022-11-30T19:56:40;1.60;99.90
7204;DHT22;3643;52.460;13.322;2022-11-30T19:59:10;1.60;99.90
7204;DHT22;3643;52.460;13.322;2022-11-30T20:01:44;1.60;99.90
7204;DHT22;3643;52.460;13.322;2022-11-30T20:04:13;1.60;99.90
7204;DHT22;3643;52.460;13.322;2022-11-30T20:06:41;1.50;99.90
7204;DHT22;3643;52.460;13.322;2022-11-30T20:09:10;1.50;99.90
7204;DHT22;3643;52.460;13.322;2022-11-30T20:11:40;1.50;99.90
7204;DHT22;3643;52.460;13.322;2022-11-30T20:14:14;1.50;99.90
7204;DHT22;3643;52.460;13.322;2022-11-30T20:16:45;1.60;99.90
7204;DHT22;3643;52.460;13.322;2022-11-30T20:19:15;1.60;99.90
7204;DHT22;3643;52.460;13.322;2022-11-30T20:21:44;1.50;99.90
7204;DHT22;3643;52.460;13.322;2022-11-30T20:24:14;1.50;99.90
7204;DHT22;3643;52.460;13.322;2022-11-30T20:26:43;1.50;99.90
7204;DHT22;3643;52.460;13.322;2022-11-30T20:29:14;1.50;99.90
7204;DHT22;3643;52.460;13.322;2022-11-30T20:31:47;1.50;99.90
7204;DHT22;3643;52.460;13.322;2022-11-30T20:34:16;1.50;99.90
7204;DHT22;3643;52.460;13.322;2022-11-30T20:36:45;1.50;99.90
7204;DHT22;3643;52.460;13.322;2022-11-30T20:39:15;1.50;99.90
7204;DHT22;3643;52.460;13.322;2022-11-30T20:41:43;1.50;99.90
7204;DHT22;3643;52.460;13.322;2022-11-30T20:44:13;1.50;99.90
7204;DHT22;3643;52.460;13.322;2022-11-30T20:46:46;1.50;99.90
7204;DHT22;3643;52.460;13.322;2022-11-30T20:49:17;2.50;99.90
7204;DHT22;3643;52.460;13.322;2022-11-30T20:51:47;1.50;99.90
7204;DHT22;3643;52.460;13.322;2022-11-30T20:54:16;1.50;99.90
7204;DHT22;3643;52.460;13.322;2022-11-30T20:56:45;1.40;99.90
7204;DHT22;3643;52.460;13.322;2022-11-30T20:59:18;1.40;99.90
7204;DHT22;3643;52.460;13.322;2022-11-30T21:01:55;1.40;99.90
7204;DHT22;3643;52.460;13.322;2022-11-30T21:04:24;1.40;99.90
7204;DHT22;3643;52.460;13.322;2022-11-30T21:06:53;1.40;99.90
7204;DHT22;3643;52.460;13.322;2022-11-30T21:09:22;1.30;99.90
7204;DHT22;3643;52.460;13.322;2022-11-30T21:11:51;1.30;99.90
7204;DHT22;3643;52.460;13.322;2022-11-30T21:14:19;1.20;99.90
7204;DHT22;3643;52.460;13.322;2022-11-30T21:16:51;1.20;99.90
7204;DHT22;3643;52.460;13.322;2022-11-30T21:19:21;1.20;99.90
7204;DHT22;3643;52.460;13.322;2022-11-30T21:21:50;1.20;99.90
7204;DHT22;3643;52.460;13.322;2022-11-30T21:24:19;1.20;99.90
7204;DHT22;3643;52.460;13.322;2022-11-30T21:26:47;1.20;99.90
7204;DHT22;3643;52.460;13.322;2022-11-30T21:29:17;1.20;99.90
7204;DHT22;3643;52.460;13.322;2022-11-30T21:31:45;1.20;99.90
7204;DHT22;3643;52.460;13.322;2022-11-30T21:34:15;1.20;99.90
7204;DHT22;3643;52.460;13.322;2022-11-30T21:36:46;1.20;99.90